createdAt,value
2023-03-20T00:02:46.514Z,5.18
2023-03-20T00:07:50.950Z,5.78
2023-03-20T00:12:54.467Z,5.30
2023-03-20T00:17:59.629Z,5.20
2023-03-20T00:23:04.222Z,5.47
2023-03-20T00:28:32.668Z,5.68
2023-03-20T00:33:38.294Z,5.50
2023-03-20T00:38:41.734Z,5.45
2023-03-20T00:43:45.890Z,6.38
2023-03-20T00:48:51.791Z,5.22
2023-03-20T00:53:55.296Z,5.43
2023-03-20T00:58:59.041Z,4.85
2023-03-20T01:04:03.746Z,5.72
2023-03-20T01:09:07.073Z,6.38
2023-03-20T01:14:15.795Z,6.22
2023-03-20T01:19:20.785Z,5.35
2023-03-20T01:24:24.122Z,5.80
2023-03-20T01:29:28.418Z,5.90
2023-03-20T01:34:33.198Z,6.15
2023-03-20T01:39:37.655Z,6.22
2023-03-20T01:44:41.976Z,5.43
2023-03-20T01:50:26.683Z,4.95
2023-03-20T01:55:42.626Z,6.22
2023-03-20T02:00:48.650Z,5.82
2023-03-20T02:05:56.481Z,6.10
2023-03-20T02:11:03.400Z,5.65
2023-03-20T02:16:12.138Z,5.57
2023-03-20T02:22:05.434Z,6.28
2023-03-20T02:27:19.513Z,5.93
2023-03-20T02:33:02.919Z,5.35
2023-03-20T02:38:23.379Z,5.47
2023-03-20T02:43:33.363Z,5.20
2023-03-20T02:48:46.471Z,5.82
2023-03-20T02:53:56.638Z,5.50
2023-03-20T02:59:08.976Z,6.47
2023-03-20T03:04:17.673Z,6.00
2023-03-20T03:09:26.076Z,6.03
2023-03-20T03:14:38.109Z,6.07
2023-03-20T03:19:51.919Z,5.45
2023-03-20T03:24:56.838Z,6.18
2023-03-20T03:30:03.308Z,6.38
2023-03-20T03:35:12.316Z,6.72
2023-03-20T03:40:23.288Z,6.07
2023-03-20T03:45:34.242Z,6.68
2023-03-20T03:50:48.022Z,6.95
2023-03-20T03:55:57.844Z,7.00
2023-03-20T04:01:03.974Z,6.55
2023-03-20T04:06:10.138Z,7.32
2023-03-20T04:11:17.574Z,7.53
2023-03-20T04:16:23.491Z,7.30
2023-03-20T04:21:27.488Z,7.03
2023-03-20T04:26:32.519Z,7.63
2023-03-20T04:31:36.118Z,7.15
2023-03-20T04:37:08.831Z,6.72
2023-03-20T04:42:24.219Z,6.95
2023-03-20T04:47:33.506Z,8.52
2023-03-20T04:52:36.843Z,6.95
2023-03-20T04:57:41.617Z,7.70
2023-03-20T05:02:47.877Z,7.28
2023-03-20T05:07:52.736Z,7.90
2023-03-20T05:13:07.107Z,7.18
2023-03-20T05:18:28.081Z,6.95
2023-03-20T05:23:51.895Z,7.57
2023-03-20T05:29:15.539Z,7.07
2023-03-20T05:34:39.142Z,6.35
2023-03-20T05:39:49.544Z,6.13
2023-03-20T05:45:17.344Z,6.88
2023-03-20T05:50:20.733Z,5.72
2023-03-20T05:55:47.116Z,5.88
2023-03-20T06:00:54.874Z,6.25
2023-03-20T06:06:17.427Z,6.47
2023-03-20T06:11:25.625Z,6.18
2023-03-20T06:16:30.785Z,5.85
2023-03-20T06:21:35.681Z,5.75
2023-03-20T06:26:40.425Z,7.38
2023-03-20T06:31:48.899Z,6.60
2023-03-20T06:37:00.603Z,5.38
2023-03-20T06:42:05.322Z,5.35
2023-03-20T06:47:10.615Z,5.90
2023-03-20T06:52:18.112Z,7.00
2023-03-20T06:57:27.933Z,6.05
2023-03-20T07:02:33.471Z,5.70
2023-03-20T07:07:37.650Z,5.65
2023-03-20T07:12:41.518Z,6.13
2023-03-20T07:17:47.611Z,4.45
2023-03-20T07:22:51.187Z,5.65
2023-03-20T07:27:59.394Z,5.43
2023-03-20T07:33:06.488Z,5.30
2023-03-20T07:38:11.401Z,4.75
2023-03-20T07:43:25.294Z,4.80
2023-03-20T07:48:36.501Z,4.55
2023-03-20T07:53:40.159Z,4.68
2023-03-20T07:58:43.474Z,4.10
2023-03-20T08:03:48.772Z,3.50
2023-03-20T08:08:52.717Z,3.63
2023-03-20T08:13:56.356Z,3.08
2023-03-20T08:19:02.367Z,3.33
2023-03-20T08:24:06.253Z,4.00
2023-03-20T08:29:09.610Z,3.45
2023-03-20T08:34:14.563Z,3.35
2023-03-20T08:39:17.917Z,2.95
2023-03-20T08:44:21.432Z,2.97
2023-03-20T08:49:26.395Z,3.40
2023-03-20T08:54:30.005Z,2.97
2023-03-20T08:59:33.466Z,3.05
2023-03-20T09:04:38.221Z,2.78
2023-03-20T09:09:41.633Z,2.40
2023-03-20T09:14:45.868Z,2.30
2023-03-20T09:19:51.127Z,2.10
2023-03-20T09:24:54.639Z,1.90
2023-03-20T09:29:57.959Z,2.40
2023-03-20T09:35:03.108Z,2.70
2023-03-20T09:40:07.563Z,2.47
2023-03-20T09:45:16.957Z,2.00
2023-03-20T09:50:30.252Z,1.95
2023-03-20T09:55:36.729Z,1.73
2023-03-20T10:00:43.941Z,1.88
2023-03-20T10:05:53.581Z,2.10
2023-03-20T10:11:05.519Z,1.85
2023-03-20T10:16:18.255Z,1.38
2023-03-20T10:21:30.124Z,1.30
2023-03-20T10:26:36.189Z,1.33
2023-03-20T10:31:46.548Z,1.30
2023-03-20T10:37:02.329Z,0.98
2023-03-20T10:42:14.966Z,1.20
2023-03-20T10:47:21.810Z,1.50
2023-03-20T10:52:29.372Z,1.70
2023-03-20T10:57:36.609Z,1.70
2023-03-20T11:02:40.016Z,1.50
2023-03-20T11:07:45.557Z,1.48
2023-03-20T11:12:52.425Z,1.50
2023-03-20T11:17:57.829Z,1.40
2023-03-20T11:23:05.885Z,1.67
2023-03-20T11:28:26.948Z,1.55
2023-03-20T11:33:31.260Z,1.65
2023-03-20T11:38:36.088Z,2.00
2023-03-20T11:43:42.678Z,1.80
2023-03-20T11:48:47.152Z,1.63
2023-03-20T11:54:02.910Z,1.85
2023-03-20T11:59:15.457Z,1.85
2023-03-20T12:04:19.856Z,1.83
2023-03-20T12:09:34.974Z,2.25
2023-03-20T12:14:44.891Z,1.95
2023-03-20T12:19:50.272Z,1.92
2023-03-20T12:25:02.904Z,1.80
2023-03-20T12:30:11.813Z,1.83
2023-03-20T12:35:19.063Z,1.90
2023-03-20T12:40:32.658Z,1.73
2023-03-20T12:45:44.207Z,1.48
2023-03-20T12:50:55.910Z,1.63
2023-03-20T12:56:09.607Z,1.35
2023-03-20T13:01:19.494Z,1.52
2023-03-20T13:06:31.729Z,1.40
2023-03-20T13:11:43.988Z,1.70
2023-03-20T13:16:56.143Z,1.80
2023-03-20T13:22:05.815Z,1.40
2023-03-20T13:27:35.794Z,1.52
2023-03-20T13:32:49.265Z,1.45
2023-03-20T13:37:55.840Z,1.55
2023-03-20T13:43:07.988Z,1.40
2023-03-20T13:48:26.026Z,1.30
2023-03-20T13:53:38.345Z,1.73
2023-03-20T13:58:53.581Z,1.77
2023-03-20T14:03:57.955Z,1.33
2023-03-20T14:09:01.708Z,1.85
2023-03-20T14:14:13.889Z,1.50
2023-03-20T14:19:20.954Z,1.42
2023-03-20T14:24:26.283Z,1.77
2023-03-20T14:29:39.430Z,1.40
2023-03-20T14:34:47.910Z,1.40
2023-03-20T14:39:55.504Z,1.55
2023-03-20T14:45:26.830Z,2.00
2023-03-20T14:50:35.599Z,1.83
2023-03-20T14:55:53.341Z,1.75
2023-03-20T15:01:04.472Z,1.80
2023-03-20T15:06:10.633Z,1.33
2023-03-20T15:11:15.899Z,1.50
2023-03-20T15:16:29.045Z,1.55
2023-03-20T15:21:38.139Z,1.58
2023-03-20T15:26:43.273Z,1.50
2023-03-20T15:32:06.499Z,1.42
2023-03-20T15:37:20.944Z,1.20
2023-03-20T15:42:27.668Z,1.42
2023-03-20T15:47:32.583Z,1.58
2023-03-20T15:52:43.142Z,1.25
2023-03-20T15:57:47.534Z,1.10
2023-03-20T16:02:53.021Z,1.48
2023-03-20T16:07:57.164Z,1.15
2023-03-20T16:13:00.634Z,1.50
2023-03-20T16:18:06.876Z,1.30
2023-03-20T16:23:11.198Z,1.20
2023-03-20T16:28:16.602Z,1.30
2023-03-20T16:33:21.589Z,1.77
2023-03-20T16:38:26.555Z,1.80
2023-03-20T16:43:32.870Z,1.73
2023-03-20T16:48:39.348Z,1.90
2023-03-20T16:53:46.835Z,1.38
2023-03-20T16:58:50.771Z,1.48
2023-03-20T17:03:57.695Z,2.05
2023-03-20T17:09:09.850Z,1.88
2023-03-20T17:14:13.305Z,1.67
2023-03-20T17:19:23.038Z,1.67
2023-03-20T17:24:26.815Z,1.77
2023-03-20T17:29:30.347Z,1.70
2023-03-20T17:34:35.809Z,1.73
2023-03-20T17:39:44.462Z,1.70
2023-03-20T17:44:49.104Z,2.08
2023-03-20T17:49:54.957Z,1.73
2023-03-20T17:54:59.407Z,2.42
2023-03-20T18:00:04.833Z,1.85
2023-03-20T18:05:12.816Z,2.10
2023-03-20T18:10:25.022Z,1.90
2023-03-20T18:15:30.000Z,2.28
2023-03-20T18:20:38.583Z,2.17
2023-03-20T18:25:43.968Z,2.47
2023-03-20T18:30:51.370Z,2.55
2023-03-20T18:36:00.240Z,2.38
2023-03-20T18:41:04.717Z,2.42
2023-03-20T18:46:19.047Z,2.38
2023-03-20T18:51:27.323Z,3.33
2023-03-20T18:56:38.386Z,2.65
2023-03-20T19:01:44.156Z,2.33
2023-03-20T19:06:53.953Z,2.53
2023-03-20T19:12:01.647Z,2.50
2023-03-20T19:17:08.123Z,2.38
2023-03-20T19:22:28.526Z,2.60
2023-03-20T19:27:36.900Z,2.80
2023-03-20T19:32:45.886Z,2.45
2023-03-20T19:37:51.869Z,2.55
2023-03-20T19:43:02.374Z,2.42
2023-03-20T19:48:17.000Z,3.03
2023-03-20T19:53:27.266Z,2.60
2023-03-20T19:58:34.311Z,2.67
2023-03-20T20:03:38.691Z,2.78
2023-03-20T20:08:49.422Z,2.50
2023-03-20T20:14:14.437Z,1.95
2023-03-20T20:19:19.694Z,2.22
2023-03-20T20:24:26.139Z,2.25
2023-03-20T20:29:30.754Z,2.50
2023-03-20T20:35:30.656Z,2.05
2023-03-20T20:40:04.093Z,2.47
2023-03-20T20:45:14.669Z,2.78
2023-03-20T20:50:21.735Z,2.20
2023-03-20T20:55:30.656Z,2.28
2023-03-20T21:00:48.959Z,2.30
2023-03-20T21:05:55.559Z,2.40
2023-03-20T21:11:02.988Z,2.40
2023-03-20T21:16:08.138Z,2.00
2023-03-20T21:21:13.792Z,2.63
2023-03-20T21:26:19.431Z,1.90
2023-03-20T21:31:28.062Z,2.08
2023-03-20T21:36:35.124Z,2.22
2023-03-20T21:41:41.995Z,2.03
2023-03-20T21:47:35.591Z,2.20
2023-03-20T21:58:23.406Z,2.00
2023-03-20T22:03:09.935Z,1.80
2023-03-20T22:14:37.291Z,1.98
2023-03-20T22:30:40.726Z,2.47
2023-03-20T22:46:19.545Z,2.10
2023-03-20T22:51:34.223Z,1.80
2023-03-20T22:56:38.710Z,2.03
2023-03-20T23:01:43.422Z,2.10
2023-03-20T23:06:46.876Z,2.22
2023-03-20T23:11:50.226Z,2.17
2023-03-20T23:16:55.104Z,2.30
2023-03-20T23:21:58.488Z,1.98
2023-03-20T23:27:02.084Z,2.88
2023-03-20T23:32:07.316Z,2.20
2023-03-20T23:37:10.712Z,2.17
2023-03-20T23:42:29.225Z,2.25
2023-03-20T23:47:44.507Z,2.60
2023-03-20T23:52:57.168Z,2.10
2023-03-20T23:58:04.721Z,2.58
